Time;durP1;ratioP1;P1;durP2;ratioP2;P2;SDS_P1;SDS_P2;PMS_P1;PMS_P2;Temp;Humidity;BMP_temperature;BMP_pressure;BME280_temperature;BME280_humidity;BME280_pressure;Samples;Min_cycle;Max_cycle;Signal;HPM_P1;HPM_P2
2022/01/11 00:00:12;;;;;;;2.37;1.50;;;;;;;-0.28;100.00;97111.94;5007393;28;20229;-92
2022/01/11 00:02:43;;;;;;;1.63;1.23;;;;;;;-0.23;100.00;97120.28;5011900;28;20214;-92
2022/01/11 00:05:21;;;;;;;1.43;1.20;;;;;;;-0.20;100.00;97122.69;5009378;28;20204;-92
2022/01/11 00:07:48;;;;;;;1.73;1.37;;;;;;;-0.21;100.00;97120.16;5007299;28;20214;-92
2022/01/11 00:10:24;;;;;;;1.87;1.37;;;;;;;-0.22;100.00;97116.66;5022567;28;20208;-90
2022/01/11 00:12:51;;;;;;;2.30;1.37;;;;;;;-0.28;100.00;97127.03;4999986;28;20207;-93
2022/01/11 00:15:19;;;;;;;2.23;1.37;;;;;;;-0.35;100.00;97117.97;5001824;28;20204;-92
2022/01/11 00:17:46;;;;;;;1.97;1.10;;;;;;;-0.36;100.00;97122.44;5003188;28;20218;-93
2022/01/11 00:20:17;;;;;;;2.37;1.10;;;;;;;-0.34;100.00;97127.63;5002703;28;20299;-92
2022/01/11 00:24:27;;;;;;;2.63;1.50;;;;;;;-0.38;100.00;97122.59;5010399;28;20230;-93
2022/01/11 00:25:39;;;;;;;1.97;1.30;;;;;;;-0.40;100.00;97118.38;5000580;28;20214;-92
2022/01/11 00:28:08;;;;;;;1.87;1.20;;;;;;;-0.29;100.00;97130.66;5007963;28;20245;-93
2022/01/11 00:30:41;;;;;;;1.83;1.00;;;;;;;-0.30;100.00;97129.81;5005510;28;20233;-91
2022/01/11 00:33:13;;;;;;;1.20;1.10;;;;;;;-0.45;100.00;97128.59;5002370;28;20247;-92
2022/01/11 00:35:44;;;;;;;1.57;1.20;;;;;;;-0.48;100.00;97136.84;5019834;28;20215;-90
2022/01/11 00:38:15;;;;;;;1.30;1.20;;;;;;;-0.48;100.00;97136.84;5003524;28;20280;-92
2022/01/11 00:40:46;;;;;;;1.40;1.30;;;;;;;-0.52;100.00;97136.31;5004486;28;20312;-91
2022/01/11 00:43:14;;;;;;;2.20;1.10;;;;;;;-0.53;100.00;97131.13;5001611;28;20274;-93
2022/01/11 00:45:41;;;;;;;1.77;1.37;;;;;;;-0.65;100.00;97126.97;5006963;28;20294;-91
2022/01/11 00:48:09;;;;;;;1.37;1.10;;;;;;;-0.64;100.00;97142.75;5004810;28;20183;-91
2022/01/11 00:50:38;;;;;;;1.10;1.00;;;;;;;-0.67;100.00;97145.66;5019715;28;20218;-92
2022/01/11 00:53:08;;;;;;;1.20;1.10;;;;;;;-0.73;100.00;97142.75;4995537;28;20219;-92
2022/01/11 00:55:37;;;;;;;1.67;0.90;;;;;;;-0.72;100.00;97141.75;5002690;28;20215;-92
2022/01/11 00:58:06;;;;;;;2.07;1.20;;;;;;;-0.72;100.00;97147.06;4997652;28;20230;-91
2022/01/11 01:00:38;;;;;;;2.33;1.37;;;;;;;-0.72;100.00;97144.41;5000107;28;20216;-91
2022/01/11 01:03:06;;;;;;;1.30;1.20;;;;;;;-0.71;100.00;97146.94;5017166;28;20212;-92
2022/01/11 01:05:35;;;;;;;1.20;1.10;;;;;;;-0.76;100.00;97155.28;5006195;28;20199;-92
2022/01/11 01:08:05;;;;;;;1.07;0.97;;;;;;;-0.76;100.00;97155.28;5007783;28;20315;-92
2022/01/11 01:10:39;;;;;;;3.77;1.00;;;;;;;-0.70;100.00;97153.91;5002251;28;20215;-92
2022/01/11 01:13:13;;;;;;;1.13;1.00;;;;;;;-0.73;100.00;97145.41;5003358;28;20219;-91
2022/01/11 01:15:42;;;;;;;1.40;1.00;;;;;;;-0.73;100.00;97143.56;5005102;28;20223;-92
2022/01/11 01:18:22;;;;;;;2.20;1.10;;;;;;;-0.70;100.00;97158.38;5001189;28;20203;-92
2022/01/11 01:20:50;;;;;;;1.00;0.97;;;;;;;-0.74;100.00;97167.59;5000991;28;20299;-92
2022/01/11 01:23:17;;;;;;;1.10;1.00;;;;;;;-0.77;100.00;97164.22;5006582;28;20331;-92
2022/01/11 01:25:47;;;;;;;2.60;1.40;;;;;;;-0.80;100.00;97172.47;5013420;28;20232;-92
2022/01/11 01:28:15;;;;;;;1.47;0.90;;;;;;;-0.77;100.00;97166.88;5001647;28;20259;-91
2022/01/11 01:30:42;;;;;;;1.20;0.87;;;;;;;-0.78;100.00;97167.88;5002187;28;20331;-91
2022/01/11 01:33:09;;;;;;;1.83;1.30;;;;;;;-0.76;100.00;97173.84;4996516;28;20307;-92
2022/01/11 01:35:42;;;;;;;0.87;0.87;;;;;;;-0.73;100.00;97179.88;5002757;28;20219;-92
2022/01/11 01:38:10;;;;;;;2.53;1.03;;;;;;;-0.78;100.00;97181.13;5004758;28;20227;-93
2022/01/11 01:40:43;;;;;;;1.77;1.10;;;;;;;-0.92;100.00;97172.75;5005060;28;20281;-92
2022/01/11 01:43:13;;;;;;;1.43;1.10;;;;;;;-0.98;100.00;97179.44;5001627;28;20269;-92
2022/01/11 01:45:44;;;;;;;1.93;1.20;;;;;;;-0.94;100.00;97175.56;5004457;28;20279;-91
2022/01/11 01:48:15;;;;;;;1.17;1.00;;;;;;;-0.99;100.00;97172.47;5021307;28;20211;-91
2022/01/11 01:50:43;;;;;;;1.70;1.30;;;;;;;-0.97;100.00;97174.97;5008578;28;20225;-92
2022/01/11 01:53:14;;;;;;;0.80;0.80;;;;;;;-1.05;100.00;97175.69;5002457;28;20207;-92
2022/01/11 01:55:43;;;;;;;1.97;1.10;;;;;;;-1.05;100.00;97178.34;5004607;28;21668;-92
2022/01/11 01:58:13;;;;;;;1.10;1.00;;;;;;;-1.09;100.00;97174.25;4998266;28;20200;-92
2022/01/11 02:00:43;;;;;;;1.00;0.90;;;;;;;-1.16;100.00;97178.44;5001570;28;20254;-91
2022/01/11 02:03:12;;;;;;;3.13;1.40;;;;;;;-1.23;100.00;97187.94;5003588;28;20199;-92
2022/01/11 02:05:41;;;;;;;3.07;1.37;;;;;;;-1.33;100.00;97177.31;5001077;28;20223;-92
2022/01/11 02:08:10;;;;;;;1.00;0.97;;;;;;;-1.41;100.00;97174.50;5001044;28;20270;-93
2022/01/11 02:10:38;;;;;;;2.13;1.53;;;;;;;-1.39;100.00;97192.91;5002188;28;20210;-92
2022/01/11 02:13:08;;;;;;;1.67;1.50;;;;;;;-1.55;100.00;97198.72;5001659;28;20235;-91
2022/01/11 02:15:38;;;;;;;1.40;1.20;;;;;;;-1.61;100.00;97202.72;5002513;28;20203;-92
2022/01/11 02:18:10;;;;;;;1.20;1.00;;;;;;;-1.69;100.00;97197.28;5002070;28;20220;-93
2022/01/11 02:20:40;;;;;;;1.10;1.00;;;;;;;-1.80;100.00;97194.75;5001012;28;20222;-91
2022/01/11 02:23:08;;;;;;;1.30;1.10;;;;;;;-1.77;100.00;97193.63;5004612;28;20227;-90
2022/01/11 02:25:36;;;;;;;1.33;1.00;;;;;;;-1.73;100.00;97201.19;4998049;28;20200;-93
2022/01/11 02:28:04;;;;;;;1.40;1.00;;;;;;;-1.69;100.00;97209.66;5000332;28;20224;-92
2022/01/11 02:30:33;;;;;;;1.53;1.10;;;;;;;-1.75;100.00;97197.81;5002632;28;20227;-93
2022/01/11 02:33:03;;;;;;;2.20;1.10;;;;;;;-1.75;100.00;97199.63;4997132;28;20207;-91
2022/01/11 02:35:30;;;;;;;1.67;1.20;;;;;;;-1.70;100.00;97206.19;5001964;28;20215;-92
2022/01/11 02:37:59;;;;;;;2.27;1.40;;;;;;;-1.70;100.00;97206.19;5003036;28;20236;-93
2022/01/11 02:40:27;;;;;;;0.90;0.90;;;;;;;-1.70;100.00;97200.88;5003504;28;20231;-92
2022/01/11 02:42:54;;;;;;;4.40;1.07;;;;;;;-1.70;100.00;97205.38;5007074;28;20239;-91
2022/01/11 02:45:22;;;;;;;1.90;1.17;;;;;;;-1.67;100.00;97211.22;4992776;28;20198;-93
2022/01/11 02:47:50;;;;;;;1.03;0.93;;;;;;;-1.75;100.00;97208.41;5003876;28;20250;-91
2022/01/11 02:50:19;;;;;;;1.07;1.00;;;;;;;-1.80;100.00;97215.91;5007760;28;20221;-93
2022/01/11 02:52:49;;;;;;;0.93;0.80;;;;;;;-1.88;100.00;97215.75;4992986;28;20211;-92
2022/01/11 02:55:18;;;;;;;1.37;0.97;;;;;;;-1.93;100.00;97204.69;5006580;28;20228;-93
2022/01/11 02:57:47;;;;;;;1.33;0.90;;;;;;;-1.95;100.00;97209.28;5001354;28;20199;-92
2022/01/11 03:00:21;;;;;;;2.00;1.10;;;;;;;-1.94;100.00;97208.31;5000580;28;20224;-90
2022/01/11 03:02:49;;;;;;;2.17;1.03;;;;;;;-1.93;100.00;97205.53;5019217;28;20215;-92
2022/01/11 03:05:23;;;;;;;0.80;0.80;;;;;;;-1.92;100.00;97211.66;5000838;28;20251;-92
2022/01/11 03:07:52;;;;;;;2.73;1.10;;;;;;;-1.94;100.00;97208.31;4997782;28;20253;-92
2022/01/11 03:10:30;;;;;;;1.53;0.80;;;;;;;-1.98;100.00;97199.81;4998437;28;20212;-90
2022/01/11 03:12:58;;;;;;;1.87;1.13;;;;;;;-1.97;100.00;97198.00;5021579;28;20259;-92
2022/01/11 03:15:26;;;;;;;1.10;1.00;;;;;;;-2.05;100.00;97195.19;5001607;28;20207;-92
2022/01/11 03:17:58;;;;;;;1.07;0.90;;;;;;;-2.04;100.00;97202.16;5009452;28;20226;-92
2022/01/11 03:20:25;;;;;;;2.43;0.97;;;;;;;-1.99;100.00;97197.28;5007690;28;20431;-91
2022/01/11 03:22:53;;;;;;;1.10;1.00;;;;;;;-1.89;100.00;97186.75;5007130;28;20207;-92
2022/01/11 03:25:23;;;;;;;1.20;0.90;;;;;;;-1.81;100.00;97193.06;5011633;28;20214;-92
2022/01/11 03:27:51;;;;;;;1.60;1.17;;;;;;;-1.76;100.00;97190.84;5010061;28;20296;-91
2022/01/11 03:30:20;;;;;;;2.57;1.40;;;;;;;-1.71;100.00;97193.94;5003516;28;20326;-90
2022/01/11 03:32:51;;;;;;;1.10;0.90;;;;;;;-1.74;100.00;97190.72;5005602;28;20204;-92
2022/01/11 03:35:24;;;;;;;2.90;0.90;;;;;;;-1.77;100.00;97193.63;5008139;28;20515;-93
2022/01/11 03:37:53;;;;;;;0.83;0.83;;;;;;;-1.74;100.00;97188.91;5005545;28;20299;-92
2022/01/11 03:40:24;;;;;;;1.57;0.90;;;;;;;-1.71;100.00;97187.81;5005006;28;20256;-91
2022/01/11 03:42:54;;;;;;;2.13;1.00;;;;;;;-1.76;100.00;97190.84;5006361;28;20204;-91
2022/01/11 03:45:22;;;;;;;2.53;0.90;;;;;;;-1.77;100.00;97197.09;5007224;28;20225;-91
2022/01/11 03:47:54;;;;;;;0.70;0.70;;;;;;;-1.78;100.00;97194.59;5003031;28;20205;-93
2022/01/11 03:50:23;;;;;;;1.33;0.87;;;;;;;-1.88;100.00;97197.22;5023908;28;20234;-92
2022/01/11 03:52:58;;;;;;;2.80;0.90;;;;;;;-1.93;100.00;97197.59;5016554;28;20216;-93
2022/01/11 03:55:44;;;;;;;0.80;0.70;;;;;;;-1.88;100.00;97191.91;5008101;28;20235;-92
2022/01/11 03:58:13;;;;;;;1.33;0.83;;;;;;;-1.92;100.00;97188.69;5008225;28;20203;-89
2022/01/11 04:00:41;;;;;;;1.20;0.90;;;;;;;-1.96;100.00;97183.81;5004080;28;20227;-92
2022/01/11 04:03:09;;;;;;;1.10;0.90;;;;;;;-1.99;100.00;97189.34;5023184;28;20211;-90
2022/01/11 04:05:36;;;;;;;1.27;1.00;;;;;;;-2.11;100.00;97180.66;5009612;28;20207;-92
2022/01/11 04:08:04;;;;;;;1.13;0.80;;;;;;;-2.10;100.00;97186.78;5006696;28;20242;-92
2022/01/11 04:10:33;;;;;;;0.80;0.80;;;;;;;-2.14;100.00;97182.75;5004482;28;20210;-94
2022/01/11 04:13:00;;;;;;;0.70;0.70;;;;;;;-2.04;100.00;97181.78;5009755;28;20214;-93
2022/01/11 04:15:27;;;;;;;1.47;0.90;;;;;;;-2.06;100.00;97175.81;5020783;28;20212;-92
2022/01/11 04:17:54;;;;;;;1.30;1.00;;;;;;;-1.98;100.00;97175.16;5007797;28;20219;-91
2022/01/11 04:20:22;;;;;;;1.00;0.90;;;;;;;-1.86;100.00;97184.66;5006720;28;20231;-92
2022/01/11 04:22:50;;;;;;;1.00;0.90;;;;;;;-1.89;100.00;97178.81;5007856;28;20295;-93
2022/01/11 04:25:19;;;;;;;1.10;1.00;;;;;;;-2.06;100.00;97177.63;5008511;28;20244;-93
2022/01/11 04:27:48;;;;;;;2.50;1.00;;;;;;;-2.09;100.00;97189.31;5003969;28;20227;-92
2022/01/11 04:30:15;;;;;;;0.87;0.87;;;;;;;-2.16;100.00;97187.31;5007283;28;20227;-92
2022/01/11 04:32:42;;;;;;;1.90;1.50;;;;;;;-2.14;100.00;97190.69;5002732;28;20283;-92
2022/01/11 04:35:16;;;;;;;1.57;1.40;;;;;;;-2.17;100.00;97191.78;5004656;28;20212;-90
2022/01/11 04:37:44;;;;;;;0.97;0.90;;;;;;;-2.19;100.00;97180.47;4996027;28;20311;-93
2022/01/11 04:40:13;;;;;;;2.70;1.17;;;;;;;-2.16;100.00;97192.59;5004179;28;20242;-89
2022/01/11 04:42:42;;;;;;;1.97;0.90;;;;;;;-2.17;100.00;97197.06;5005576;28;20214;-93
2022/01/11 04:45:14;;;;;;;1.40;1.10;;;;;;;-2.15;100.00;97199.59;5000760;28;20220;-90
2022/01/11 04:47:41;;;;;;;1.20;1.00;;;;;;;-2.10;100.00;97207.94;5002681;28;20223;-91
2022/01/11 04:50:09;;;;;;;1.10;1.00;;;;;;;-2.11;100.00;97195.69;5021783;28;20306;-91
2022/01/11 04:52:36;;;;;;;1.20;0.90;;;;;;;-2.06;100.00;97204.09;5005761;28;20264;-91
2022/01/11 04:55:08;;;;;;;1.80;1.10;;;;;;;-2.07;100.00;97207.69;5007398;28;20285;-91
2022/01/11 04:57:36;;;;;;;1.63;1.20;;;;;;;-1.99;100.00;97210.53;5001041;28;20196;-92
2022/01/11 05:00:04;;;;;;;3.20;1.30;;;;;;;-2.04;100.00;97205.59;5004224;28;20255;-92
2022/01/11 05:02:34;;;;;;;1.33;1.00;;;;;;;-2.04;100.00;97210.91;5005933;28;20276;-92
2022/01/11 05:05:01;;;;;;;1.87;1.30;;;;;;;-2.07;100.00;97211.19;5000171;28;20261;-92
2022/01/11 05:07:29;;;;;;;0.80;0.80;;;;;;;-2.06;100.00;97212.03;5001301;28;20207;-93
2022/01/11 05:09:57;;;;;;;2.70;1.03;;;;;;;-2.06;100.00;97212.03;5001351;28;20203;-92
2022/01/11 05:12:24;;;;;;;1.07;0.90;;;;;;;-2.06;100.00;97210.22;4992302;28;20254;-92
2022/01/11 05:14:51;;;;;;;0.73;0.73;;;;;;;-2.05;100.00;97205.78;4999780;28;20203;-92
2022/01/11 05:17:19;;;;;;;2.77;1.23;;;;;;;-2.09;100.00;97207.81;5000411;28;20207;-93
2022/01/11 05:19:48;;;;;;;1.43;1.10;;;;;;;-2.14;100.00;97203.91;5002005;28;20213;-91
2022/01/11 05:22:15;;;;;;;2.47;1.10;;;;;;;-2.17;100.00;97201.50;4993742;28;20250;-93
2022/01/11 05:24:42;;;;;;;3.60;1.20;;;;;;;-2.17;100.00;97204.16;5001094;28;20271;-91
2022/01/11 05:27:09;;;;;;;3.30;1.40;;;;;;;-2.12;100.00;97213.38;5004359;28;20215;-93
2022/01/11 05:29:37;;;;;;;2.97;1.50;;;;;;;-2.09;100.00;97209.63;5006566;28;20271;-93
2022/01/11 05:32:05;;;;;;;1.83;1.40;;;;;;;-2.17;100.00;97217.38;5009197;28;20253;-89
2022/01/11 05:34:32;;;;;;;2.40;1.57;;;;;;;-2.28;100.00;97203.25;5000262;28;20297;-91
2022/01/11 05:37:00;;;;;;;3.57;1.77;;;;;;;-2.25;100.00;97210.09;5007147;28;20214;-90
2022/01/11 05:39:28;;;;;;;2.40;1.60;;;;;;;-2.16;100.00;97219.06;5002778;28;20203;-92
2022/01/11 05:41:55;;;;;;;1.10;1.00;;;;;;;-2.21;100.00;97223.91;5007717;28;20251;-91
2022/01/11 05:44:23;;;;;;;5.13;1.83;;;;;;;-2.22;100.00;97217.78;4999995;28;20202;-90
2022/01/11 05:46:50;;;;;;;1.63;1.10;;;;;;;-2.20;100.00;97229.06;5019599;28;20203;-91
2022/01/11 05:49:18;;;;;;;1.20;1.10;;;;;;;-2.22;100.00;97223.09;5004975;28;20212;-91
2022/01/11 05:51:45;;;;;;;2.10;1.40;;;;;;;-2.18;100.00;97226.28;4996025;28;20214;-91
2022/01/11 05:54:14;;;;;;;1.73;1.10;;;;;;;-2.18;100.00;97232.41;5005281;28;20234;-91
2022/01/11 05:56:41;;;;;;;1.40;1.10;;;;;;;-2.17;100.00;97236.75;4998983;28;20229;-91
2022/01/11 05:59:09;;;;;;;1.40;1.10;;;;;;;-2.15;100.00;97241.91;4997360;28;20200;-91
2022/01/11 06:01:36;;;;;;;2.13;1.50;;;;;;;-2.14;100.00;97243.59;4997115;28;20232;-91
2022/01/11 06:04:04;;;;;;;1.37;1.10;;;;;;;-2.22;100.00;97235.47;5006219;28;20378;-92
2022/01/11 06:06:31;;;;;;;2.90;1.47;;;;;;;-2.25;100.00;97233.06;5003890;28;20200;-92
2022/01/11 06:09:01;;;;;;;3.67;2.20;;;;;;;-2.30;100.00;97236.94;5000556;28;20311;-91
2022/01/11 06:11:30;;;;;;;4.20;2.40;;;;;;;-2.31;100.00;97243.22;5020462;28;20310;-91
2022/01/11 06:13:58;;;;;;;1.10;1.00;;;;;;;-2.26;100.00;97252.56;5000019;28;20230;-92
2022/01/11 06:16:25;;;;;;;1.83;1.40;;;;;;;-2.30;100.00;97250.16;5000978;28;20215;-91
2022/01/11 06:18:53;;;;;;;1.33;0.97;;;;;;;-2.23;100.00;97250.50;5003029;28;20200;-89
2022/01/11 06:21:28;;;;;;;2.33;1.80;;;;;;;-2.29;100.00;97257.13;5004844;28;20285;-91
2022/01/11 06:23:55;;;;;;;3.73;1.80;;;;;;;-2.21;100.00;97258.31;5003941;28;20215;-91
2022/01/11 06:26:23;;;;;;;4.47;2.30;;;;;;;-2.28;100.00;97264.09;5016277;28;20196;-91
2022/01/11 06:28:51;;;;;;;3.60;2.20;;;;;;;-2.34;100.00;97269.91;5000821;28;20229;-92
2022/01/11 06:31:18;;;;;;;3.07;2.03;;;;;;;-2.25;100.00;97267.47;5002535;28;20219;-91
2022/01/11 06:33:45;;;;;;;2.90;2.03;;;;;;;-2.28;100.00;97276.47;5005144;28;20218;-92
2022/01/11 06:36:18;;;;;;;3.50;2.10;;;;;;;-2.30;100.00;97281.91;5000739;28;20204;-92
2022/01/11 06:38:46;;;;;;;3.73;1.90;;;;;;;-2.26;100.00;97286.94;5005125;28;20215;-89
2022/01/11 06:41:17;;;;;;;3.97;1.70;;;;;;;-2.26;100.00;97287.78;4993331;28;20235;-92
2022/01/11 06:43:45;;;;;;;4.07;1.80;;;;;;;-2.26;100.00;97297.53;5004065;28;20207;-91
2022/01/11 06:46:15;;;;;;;1.43;1.10;;;;;;;-2.32;100.00;97294.44;5000610;28;20200;-91
2022/01/11 06:48:42;;;;;;;1.23;1.10;;;;;;;-2.39;100.00;97298.56;5004972;28;20230;-90
2022/01/11 06:51:12;;;;;;;2.77;1.40;;;;;;;-2.39;100.00;97308.31;4997568;28;20207;-90
2022/01/11 06:53:46;;;;;;;2.47;1.60;;;;;;;-2.35;100.00;97315.00;5009391;28;20207;-90
2022/01/11 06:56:14;;;;;;;1.63;1.53;;;;;;;-2.35;100.00;97315.00;5002291;28;20207;-92
2022/01/11 06:58:41;;;;;;;3.87;1.97;;;;;;;-2.37;100.00;97315.13;5005679;28;20549;-91
2022/01/11 07:01:08;;;;;;;1.47;1.37;;;;;;;-2.35;100.00;97315.84;5007634;28;20220;-92
2022/01/11 07:03:37;;;;;;;4.10;1.97;;;;;;;-2.38;100.00;97320.53;5022953;28;20235;-90
2022/01/11 07:06:23;;;;;;;1.50;1.40;;;;;;;-2.39;100.00;97330.31;5008362;28;20214;-92
2022/01/11 07:08:51;;;;;;;4.10;1.83;;;;;;;-2.35;100.00;97338.81;5007007;28;20211;-90
2022/01/11 07:11:22;;;;;;;1.90;1.70;;;;;;;-2.35;100.00;97337.00;5003957;28;20299;-91
2022/01/11 07:13:49;;;;;;;2.73;1.87;;;;;;;-2.42;100.00;97333.19;5010169;28;20206;-92
2022/01/11 07:16:17;;;;;;;2.20;2.00;;;;;;;-2.36;100.00;97335.31;5010959;28;20218;-91
2022/01/11 07:18:49;;;;;;;2.90;1.87;;;;;;;-2.43;100.00;97328.88;5005085;28;20294;-89
2022/01/11 07:21:17;;;;;;;2.97;2.40;;;;;;;-2.38;100.00;97328.47;5006038;28;20231;-90
2022/01/11 07:23:44;;;;;;;2.37;1.97;;;;;;;-2.31;100.00;97343.72;5016824;28;20257;-93
2022/01/11 07:26:11;;;;;;;2.23;1.73;;;;;;;-2.31;100.00;97348.19;5002871;28;20204;-93
2022/01/11 07:28:39;;;;;;;1.90;1.60;;;;;;;-2.31;100.00;97349.03;5005459;28;20266;-92
2022/01/11 07:31:10;;;;;;;1.60;1.50;;;;;;;-2.35;100.00;97350.22;5024011;28;20212;-91
2022/01/11 07:33:44;;;;;;;2.53;1.50;;;;;;;-2.34;100.00;97349.25;5011194;28;20310;-92
2022/01/11 07:36:14;;;;;;;2.40;1.67;;;;;;;-2.38;100.00;97355.75;5004062;28;20239;-92
2022/01/11 07:38:43;;;;;;;4.60;1.93;;;;;;;-2.43;100.00;97363.25;5007920;28;20208;-93
2022/01/11 07:41:16;;;;;;;2.80;2.10;;;;;;;-2.53;100.00;97356.19;5012920;28;20222;-92
2022/01/11 07:43:57;;;;;;;5.23;2.30;;;;;;;-2.59;100.00;97362.81;5008508;28;20215;-92
2022/01/11 07:46:32;;;;;;;3.87;2.67;;;;;;;-2.63;100.00;97364.00;5005263;28;20258;-92
2022/01/11 07:49:02;;;;;;;4.20;2.60;;;;;;;-2.69;100.00;97364.50;5001601;28;20210;-92
2022/01/11 07:51:31;;;;;;;3.77;2.60;;;;;;;-2.71;100.00;97374.38;5003007;28;20202;-90
2022/01/11 07:54:01;;;;;;;3.50;2.50;;;;;;;-2.68;100.00;97380.25;5020894;28;20212;-90
2022/01/11 07:56:28;;;;;;;3.00;2.70;;;;;;;-2.69;100.00;97385.66;5007610;28;20212;-91
2022/01/11 07:58:56;;;;;;;5.20;2.50;;;;;;;-2.69;100.00;97375.94;5003654;28;20294;-92
2022/01/11 08:01:28;;;;;;;3.93;2.60;;;;;;;-2.67;100.00;97379.31;5015504;28;20550;-90
2022/01/11 08:03:55;;;;;;;4.40;3.10;;;;;;;-2.67;100.00;97376.66;5007222;28;21442;-91
2022/01/11 08:06:26;;;;;;;4.73;2.83;;;;;;;-2.63;100.00;97376.38;5005139;28;20204;-90
2022/01/11 08:09:04;;;;;;;6.03;3.30;;;;;;;-2.60;100.00;97387.56;5006242;28;20199;-91
2022/01/11 08:11:33;;;;;;;4.53;3.13;;;;;;;-2.55;100.00;97376.63;4997754;28;20218;-89
2022/01/11 08:14:01;;;;;;;4.83;3.20;;;;;;;-2.49;100.00;97384.06;5003370;28;20234;-91
2022/01/11 08:16:28;;;;;;;6.13;3.70;;;;;;;-2.43;100.00;97384.41;5006069;28;20245;-91
2022/01/11 08:18:56;;;;;;;4.97;3.23;;;;;;;-2.47;100.00;97380.34;5000129;28;20271;-86
2022/01/11 08:21:23;;;;;;;7.30;3.80;;;;;;;-2.48;100.00;97386.59;5005934;28;20362;-87
2022/01/11 08:23:51;;;;;;;5.27;3.77;;;;;;;-2.50;100.00;97388.50;5022506;28;20242;-88
2022/01/11 08:26:21;;;;;;;6.83;4.23;;;;;;;-2.61;100.00;97388.53;5007170;28;20258;-89
2022/01/11 08:28:48;;;;;;;7.03;3.73;;;;;;;-2.61;100.00;97396.47;5006354;28;20276;-89
2022/01/11 08:31:16;;;;;;;8.77;4.20;;;;;;;-2.70;100.00;97384.81;5007491;28;20215;-88
2022/01/11 08:33:49;;;;;;;5.40;3.33;;;;;;;-2.71;100.00;97385.78;5004628;28;20207;-88
2022/01/11 08:36:18;;;;;;;5.70;3.20;;;;;;;-2.63;100.00;97394.91;5008348;28;20216;-88
2022/01/11 08:38:46;;;;;;;5.30;3.27;;;;;;;-2.64;100.00;97393.25;5007235;28;20224;-89
2022/01/11 08:41:13;;;;;;;4.90;3.03;;;;;;;-2.61;100.00;97391.16;5002148;28;20306;-88
2022/01/11 08:43:42;;;;;;;6.80;3.00;;;;;;;-2.59;100.00;97397.19;5004250;28;20213;-88
2022/01/11 08:46:10;;;;;;;4.20;2.77;;;;;;;-2.56;100.00;97402.25;4997578;28;20225;-88
2022/01/11 08:48:51;;;;;;;4.70;2.90;;;;;;;-2.50;100.00;97398.25;4999584;28;20259;-88
2022/01/11 08:51:19;;;;;;;4.57;3.07;;;;;;;-2.42;100.00;97404.59;5018506;28;20275;-88
2022/01/11 08:53:47;;;;;;;5.17;3.10;;;;;;;-2.38;100.00;97406.00;5004578;28;20210;-88
2022/01/11 08:56:17;;;;;;;10.67;5.33;;;;;;;-2.25;100.00;97405.03;5004740;28;20289;-88
2022/01/11 08:58:46;;;;;;;7.43;3.40;;;;;;;-2.30;100.00;97408.88;5000528;28;20203;-88
2022/01/11 09:01:19;;;;;;;5.00;3.27;;;;;;;-2.29;100.00;97401.78;4996185;28;20193;-87
2022/01/11 09:03:47;;;;;;;6.50;3.63;;;;;;;-2.22;100.00;97410.91;4992778;28;20249;-88
2022/01/11 09:06:14;;;;;;;6.47;3.63;;;;;;;-2.14;100.00;97402.34;4998373;28;20210;-88
2022/01/11 09:08:45;;;;;;;5.70;3.83;;;;;;;-2.06;100.00;97394.63;5006558;28;20214;-88
2022/01/11 09:11:13;;;;;;;7.03;3.50;;;;;;;-1.98;100.00;97406.25;5004117;28;20212;-87
2022/01/11 09:13:47;;;;;;;6.77;4.10;;;;;;;-1.91;100.00;97409.22;5003501;28;20204;-88
2022/01/11 09:16:15;;;;;;;7.33;4.43;;;;;;;-1.83;100.00;97406.78;4993537;28;20268;-87
2022/01/11 09:18:46;;;;;;;6.83;3.77;;;;;;;-1.87;100.00;97399.25;5000051;28;20212;-88
2022/01/11 09:21:15;;;;;;;5.67;3.40;;;;;;;-1.85;100.00;97395.47;5001007;28;20199;-87
2022/01/11 09:23:42;;;;;;;3.90;3.00;;;;;;;-1.83;100.00;97393.53;5001103;28;20204;-88
2022/01/11 09:26:09;;;;;;;4.97;3.00;;;;;;;-1.73;100.00;97397.09;5005478;28;20208;-87
2022/01/11 09:28:47;;;;;;;5.87;2.83;;;;;;;-1.56;100.00;97378.00;4987644;28;20227;-88
2022/01/11 09:31:15;;;;;;;4.10;2.80;;;;;;;-1.49;100.00;97375.66;4996014;28;20262;-88
2022/01/11 09:33:43;;;;;;;4.10;2.50;;;;;;;-1.37;100.00;97387.03;4998358;28;20208;-87
2022/01/11 09:36:10;;;;;;;5.73;2.33;;;;;;;-1.32;100.00;97382.16;4998414;28;20234;-87
2022/01/11 09:38:38;;;;;;;3.53;2.03;;;;;;;-1.24;100.00;97377.88;4993052;28;20294;-87
2022/01/11 09:41:05;;;;;;;3.60;2.20;;;;;;;-1.09;100.00;97386.31;5002260;28;20215;-87
2022/01/11 09:43:38;;;;;;;3.63;2.10;;;;;;;-0.98;100.00;97382.72;5001241;28;20215;-87
2022/01/11 09:46:09;;;;;;;3.27;2.30;;;;;;;-0.88;100.00;97380.97;5002873;28;20203;-87
2022/01/11 09:48:39;;;;;;;4.37;2.33;;;;;;;-0.90;100.00;97380.25;4992658;28;20215;-87
2022/01/11 09:51:07;;;;;;;3.40;2.27;;;;;;;-0.83;100.00;97379.56;5020078;28;20260;-88
2022/01/11 09:53:36;;;;;;;3.77;2.20;;;;;;;-0.82;100.00;97378.59;5014320;28;20227;-87
2022/01/11 09:56:09;;;;;;;3.50;2.40;;;;;;;-0.76;100.00;97388.66;4990009;28;20257;-87
2022/01/11 09:58:39;;;;;;;3.57;2.10;;;;;;;-0.73;100.00;97382.25;5006897;28;20298;-87
2022/01/11 10:01:40;;;;;;;3.83;2.03;;;;;;;-0.63;100.00;97376.97;4990744;28;20207;-88
2022/01/11 10:04:10;;;;;;;5.07;2.00;;;;;;;-0.50;100.00;97389.00;5001060;28;20307;-87
2022/01/11 10:07:05;;;;;;;3.47;2.07;;;;;;;-0.41;97.68;97382.88;5003924;28;20203;-87
2022/01/11 10:09:43;;;;;;;3.13;1.50;;;;;;;-0.39;94.63;97383.59;4996386;28;20228;-87
2022/01/11 10:12:13;;;;;;;1.97;1.30;;;;;;;-0.32;93.37;97380.38;5011276;28;20215;-87
2022/01/11 10:14:50;;;;;;;1.70;1.50;;;;;;;-0.19;91.73;97379.16;4996344;28;20215;-87
2022/01/11 10:17:23;;;;;;;1.80;1.40;;;;;;;-0.10;92.36;97377.50;5000337;28;20294;-87
2022/01/11 10:20:03;;;;;;;2.67;1.80;;;;;;;0.06;92.55;97382.25;4992475;28;20214;-87
2022/01/11 10:22:32;;;;;;;2.10;1.70;;;;;;;0.13;92.34;97370.91;4994259;28;20228;-86
2022/01/11 10:25:01;;;;;;;3.07;1.60;;;;;;;0.34;93.27;97373.44;4989521;28;20312;-87
2022/01/11 10:27:34;;;;;;;2.00;1.50;;;;;;;0.55;90.02;97375.91;5000751;28;20208;-87
2022/01/11 10:30:06;;;;;;;2.63;1.70;;;;;;;0.70;88.60;97375.28;5016250;28;20247;-87
2022/01/11 10:32:38;;;;;;;1.90;1.70;;;;;;;0.85;87.83;97372.19;4997805;28;20211;-87
2022/01/11 10:35:30;;;;;;;3.07;1.40;;;;;;;1.00;85.35;97360.09;4996028;28;20227;-87
2022/01/11 10:38:03;;;;;;;2.43;1.40;;;;;;;1.16;83.45;97360.31;4998861;28;20207;-87
2022/01/11 10:40:34;;;;;;;1.70;1.40;;;;;;;1.33;83.38;97367.50;5011256;28;20195;-86
2022/01/11 10:43:07;;;;;;;1.40;1.10;;;;;;;1.43;80.94;97359.47;5002908;28;20257;-86
2022/01/11 10:45:36;;;;;;;2.20;1.47;;;;;;;1.56;82.30;97364.44;5006725;28;20204;-86
2022/01/11 10:48:10;;;;;;;2.77;1.20;;;;;;;1.76;83.08;97353.50;5003389;28;20207;-86
2022/01/11 10:50:40;;;;;;;1.63;1.23;;;;;;;1.68;79.30;97360.56;5015812;28;20257;-85
2022/01/11 10:53:12;;;;;;;1.70;1.27;;;;;;;1.73;78.91;97359.13;5007355;28;20532;-85
2022/01/11 10:55:41;;;;;;;1.53;1.20;;;;;;;1.72;78.82;97368.09;5001357;28;20247;-85
2022/01/11 10:58:11;;;;;;;1.70;1.40;;;;;;;1.93;80.85;97357.16;5021469;28;20211;-86
2022/01/11 11:00:43;;;;;;;3.57;1.60;;;;;;;1.88;79.78;97349.63;4996748;28;20210;-84
2022/01/11 11:03:14;;;;;;;2.67;1.63;;;;;;;2.03;80.41;97349.94;5003800;28;20321;-85
2022/01/11 11:05:47;;;;;;;3.47;1.70;;;;;;;2.19;79.11;97354.56;5009931;28;20207;-86
2022/01/11 11:08:23;;;;;;;2.20;1.40;;;;;;;2.20;77.21;97349.09;5007384;28;20207;-85
2022/01/11 11:11:02;;;;;;;1.67;1.47;;;;;;;2.18;77.10;97345.75;5010372;28;20271;-85
2022/01/11 11:13:32;;;;;;;2.80;1.53;;;;;;;2.39;79.22;97347.22;5002630;28;20301;-85
2022/01/11 11:16:10;;;;;;;2.73;1.50;;;;;;;2.52;77.38;97350.34;5007118;28;20206;-85
2022/01/11 11:18:42;;;;;;;2.63;1.60;;;;;;;2.64;77.35;97344.56;5000483;28;20207;-85
2022/01/11 11:21:22;;;;;;;1.67;1.30;;;;;;;2.86;77.59;97348.56;5009111;28;20215;-86
2022/01/11 11:23:52;;;;;;;2.00;1.50;;;;;;;3.08;75.22;97355.16;4999126;28;20249;-85
2022/01/11 11:26:21;;;;;;;1.47;1.13;;;;;;;3.12;72.66;97353.03;5008076;28;20212;-85
2022/01/11 11:28:48;;;;;;;2.30;1.70;;;;;;;3.22;73.49;97364.44;4999272;28;20301;-85
2022/01/11 11:31:16;;;;;;;1.97;1.50;;;;;;;3.73;75.46;97366.13;5008656;28;20261;-85
2022/01/11 11:33:44;;;;;;;1.50;1.17;;;;;;;3.78;70.73;97363.78;5023112;28;20211;-85
2022/01/11 11:36:14;;;;;;;2.13;1.40;;;;;;;3.95;71.32;97364.66;5008712;28;20220;-86
2022/01/11 11:38:44;;;;;;;2.27;1.53;;;;;;;3.87;72.66;97360.13;5006501;28;20227;-86